Res La Ceiba, Puerto Rico
Current Conditions -  °F | °C
As of 8:53 AM on Saturday 25 Oct 2014 (Local Time) from TJNR Reporting Station
Broken Clouds Broken Clouds  
Wind Chill: 87°   Ceiling: 3100
Heat Index: 97°   Visibility: 10mi
Dew Point: 76°   Wind: 12mph
Humidity: 69%   Direction: 130°SE
Pressure: 29.97"   Gusts: NA
Location:  18.2667°N, 65.6476°W
Report Text: TJNR 251253Z AUTO 13010KT 10SM SCT021 BKN031 BKN090 31/24 A2997 RMK AO2 SLP150 T03060244 $
Loading
Personal Weather Stations






























Interactive Weather Map
Tropical Storm Tracking
New forecast layout! Learn more

10-Day Weather Forecast

Advertisements
Track Severe Weather on mobile